createdAt,value
2018-02-27T00:00:23.013Z,-0.60
2018-02-27T00:02:50.520Z,-0.70
2018-02-27T00:05:19.585Z,-0.60
2018-02-27T00:07:48.361Z,-0.70
2018-02-27T00:10:16.466Z,-0.70
2018-02-27T00:12:44.540Z,-0.70
2018-02-27T00:15:13.377Z,-0.70
2018-02-27T00:17:45.827Z,-0.70
2018-02-27T00:20:13.332Z,-0.80
2018-02-27T00:22:40.917Z,-0.80
2018-02-27T00:25:09.217Z,-0.80
2018-02-27T00:27:36.864Z,-0.80
2018-02-27T00:30:06.114Z,-0.80
2018-02-27T00:32:35.864Z,-0.80
2018-02-27T00:35:04.637Z,-0.80
2018-02-27T00:37:32.942Z,-0.80
2018-02-27T00:40:02.005Z,-0.80
2018-02-27T00:42:30.257Z,-0.80
2018-02-27T00:44:59.167Z,-0.80
2018-02-27T00:47:26.752Z,-0.80
2018-02-27T00:49:55.732Z,-0.80
2018-02-27T00:52:23.429Z,-0.90
2018-02-27T00:54:52.097Z,-0.90
2018-02-27T00:57:20.177Z,-0.90
2018-02-27T00:59:47.694Z,-0.90
2018-02-27T01:02:16.387Z,-0.90
2018-02-27T01:04:45.580Z,-1.00
2018-02-27T01:07:14.236Z,-1.00
2018-02-27T01:09:42.532Z,-1.00
2018-02-27T01:12:10.023Z,-1.00
2018-02-27T01:14:39.965Z,-1.00
2018-02-27T01:17:07.457Z,-1.00
2018-02-27T01:19:34.907Z,-1.00
2018-02-27T01:22:02.714Z,-1.00
2018-02-27T01:24:30.181Z,-1.00
2018-02-27T01:26:57.663Z,-1.00
2018-02-27T01:29:25.957Z,-1.10
2018-02-27T01:31:55.081Z,-1.10
2018-02-27T01:34:27.991Z,-1.20
2018-02-27T01:36:55.456Z,-1.20
2018-02-27T01:39:26.856Z,-1.20
2018-02-27T01:41:54.792Z,-1.20
2018-02-27T01:44:23.112Z,-1.20
2018-02-27T01:46:52.672Z,-1.30
2018-02-27T01:49:22.625Z,-1.30
2018-02-27T01:51:51.397Z,-1.30
2018-02-27T01:54:19.322Z,-1.30
2018-02-27T01:56:47.119Z,-1.30
2018-02-27T01:59:17.201Z,-1.30
2018-02-27T02:01:46.084Z,-1.30
2018-02-27T02:04:13.554Z,-1.30
2018-02-27T02:06:41.577Z,-1.30
2018-02-27T02:09:10.556Z,-1.40
2018-02-27T02:11:38.857Z,-1.40
2018-02-27T02:14:07.153Z,-1.40
2018-02-27T02:16:35.504Z,-1.40
2018-02-27T02:19:03.777Z,-1.30
2018-02-27T02:21:32.020Z,-1.30
2018-02-27T02:23:59.564Z,-1.40
2018-02-27T02:26:27.505Z,-1.40
2018-02-27T02:28:55.337Z,-1.40
2018-02-27T02:31:22.818Z,-1.50
2018-02-27T02:33:51.881Z,-1.50
2018-02-27T02:36:20.905Z,-1.60
2018-02-27T02:38:49.338Z,-1.60
2018-02-27T02:41:17.255Z,-1.60
2018-02-27T02:43:44.970Z,-1.60
2018-02-27T02:46:12.420Z,-1.60
2018-02-27T02:48:39.941Z,-1.60
2018-02-27T02:51:07.387Z,-1.60
2018-02-27T02:53:35.247Z,-1.70
2018-02-27T02:56:04.013Z,-1.70
2018-02-27T02:58:31.928Z,-1.70
2018-02-27T03:00:59.768Z,-1.70
2018-02-27T03:03:27.589Z,-1.70
2018-02-27T03:05:55.559Z,-1.80
2018-02-27T03:08:23.020Z,-1.80
2018-02-27T03:10:50.476Z,-1.80
2018-02-27T03:13:17.945Z,-1.90
2018-02-27T03:15:45.413Z,-1.90
2018-02-27T03:18:12.896Z,-1.90
2018-02-27T03:20:41.142Z,-2.00
2018-02-27T03:23:08.919Z,-2.10
2018-02-27T03:25:36.404Z,-2.10
2018-02-27T03:28:03.865Z,-2.10
2018-02-27T03:30:31.781Z,-2.10
2018-02-27T03:32:59.253Z,-2.10
2018-02-27T03:35:27.325Z,-2.10
2018-02-27T03:37:55.741Z,-2.20
2018-02-27T03:40:25.574Z,-2.20
2018-02-27T03:42:58.253Z,-2.20
2018-02-27T03:45:29.118Z,-2.20
2018-02-27T03:47:59.218Z,-2.30
2018-02-27T03:50:30.849Z,-2.30
2018-02-27T03:52:59.985Z,-2.30
2018-02-27T03:55:30.588Z,-2.30
2018-02-27T03:58:10.806Z,-2.20
2018-02-27T04:00:40.065Z,-2.20
2018-02-27T04:03:12.779Z,-2.30
2018-02-27T04:05:48.684Z,-2.20
2018-02-27T04:08:28.283Z,-2.30
2018-02-27T04:11:12.365Z,-2.30
2018-02-27T04:16:54.864Z,-2.30
2018-02-27T04:19:30.504Z,-2.30
2018-02-27T04:22:03.821Z,-2.30
2018-02-27T04:24:35.460Z,-2.30
2018-02-27T04:27:10.054Z,-2.40
2018-02-27T04:29:38.428Z,-2.40
2018-02-27T04:32:08.777Z,-2.40
2018-02-27T04:34:44.356Z,-2.40
2018-02-27T04:37:16.604Z,-2.40
2018-02-27T04:39:46.309Z,-2.50
2018-02-27T04:42:23.042Z,-2.50
2018-02-27T04:44:52.613Z,-2.50
2018-02-27T04:47:23.876Z,-2.50
2018-02-27T04:49:58.194Z,-2.50
2018-02-27T04:52:42.524Z,-2.50
2018-02-27T04:55:11.462Z,-2.60
2018-02-27T04:57:40.229Z,-2.60
2018-02-27T05:00:10.107Z,-2.70
2018-02-27T05:02:41.537Z,-2.70
2018-02-27T05:05:19.760Z,-2.70
2018-02-27T05:07:47.503Z,-2.70
2018-02-27T05:10:26.140Z,-2.60
2018-02-27T05:12:57.779Z,-2.70
2018-02-27T05:15:39.822Z,-2.60
2018-02-27T05:18:11.731Z,-2.70
2018-02-27T05:20:39.177Z,-2.70
2018-02-27T05:23:06.825Z,-2.70
2018-02-27T05:25:34.256Z,-2.70
2018-02-27T05:28:02.174Z,-2.70
2018-02-27T05:30:30.427Z,-2.70
2018-02-27T05:32:57.983Z,-2.70
2018-02-27T05:35:26.003Z,-2.70
2018-02-27T05:37:53.468Z,-2.70
2018-02-27T05:40:21.786Z,-2.80
2018-02-27T05:42:49.396Z,-2.80
2018-02-27T05:45:16.883Z,-2.80
2018-02-27T05:47:44.655Z,-2.90
2018-02-27T05:50:12.122Z,-2.90
2018-02-27T05:52:40.140Z,-3.00
2018-02-27T05:55:08.608Z,-3.00
2018-02-27T05:57:36.063Z,-3.00
2018-02-27T06:00:04.392Z,-3.00
2018-02-27T06:02:31.821Z,-3.00
2018-02-27T06:04:59.308Z,-3.00
2018-02-27T06:07:26.846Z,-3.00
2018-02-27T06:09:54.299Z,-3.00
2018-02-27T06:12:21.776Z,-3.10
2018-02-27T06:14:50.065Z,-3.00
2018-02-27T06:17:17.517Z,-3.00
2018-02-27T06:19:44.984Z,-3.00
2018-02-27T06:22:12.433Z,-3.00
2018-02-27T06:24:39.912Z,-2.90
2018-02-27T06:27:08.221Z,-2.90
2018-02-27T06:29:35.744Z,-2.90
2018-02-27T06:32:03.341Z,-2.90
2018-02-27T06:34:31.339Z,-2.90
2018-02-27T06:36:58.817Z,-2.90
2018-02-27T06:39:26.778Z,-2.90
2018-02-27T06:41:54.808Z,-2.90
2018-02-27T06:44:22.261Z,-2.90
2018-02-27T06:46:49.725Z,-3.00
2018-02-27T06:49:17.483Z,-3.00
2018-02-27T06:51:46.649Z,-3.00
2018-02-27T06:54:14.734Z,-2.90
2018-02-27T06:56:43.483Z,-2.90
2018-02-27T06:59:11.306Z,-2.90
2018-02-27T07:01:38.745Z,-2.80
2018-02-27T07:04:06.211Z,-2.80
2018-02-27T07:06:33.661Z,-2.80
2018-02-27T07:09:01.598Z,-2.70
2018-02-27T07:11:29.854Z,-2.60
2018-02-27T07:13:57.768Z,-2.60
2018-02-27T07:16:25.852Z,-2.50
2018-02-27T07:18:53.320Z,-2.50
2018-02-27T07:21:20.762Z,-2.50
2018-02-27T07:23:48.375Z,-2.40
2018-02-27T07:26:15.818Z,-2.40
2018-02-27T07:28:43.920Z,-2.40
2018-02-27T07:31:12.403Z,-2.30
2018-02-27T07:33:41.408Z,-2.20
2018-02-27T07:36:10.011Z,-2.20
2018-02-27T07:38:37.470Z,-2.20
2018-02-27T07:41:05.312Z,-2.20
2018-02-27T07:43:32.788Z,-2.20
2018-02-27T07:46:00.352Z,-2.10
2018-02-27T07:48:29.298Z,-2.00
2018-02-27T07:50:57.453Z,-2.00
2018-02-27T07:53:24.932Z,-1.90
2018-02-27T07:55:53.523Z,-1.80
2018-02-27T07:58:22.342Z,-1.80
2018-02-27T08:00:49.824Z,-1.80
2018-02-27T08:03:17.319Z,-1.80
2018-02-27T08:05:46.195Z,-1.80
2018-02-27T08:08:13.632Z,-1.80
2018-02-27T08:10:41.128Z,-1.80
2018-02-27T08:13:09.357Z,-1.70
2018-02-27T08:15:37.665Z,-1.70
2018-02-27T08:18:05.121Z,-1.60
2018-02-27T08:20:33.474Z,-1.50
2018-02-27T08:23:00.909Z,-1.50
2018-02-27T08:25:28.638Z,-1.50
2018-02-27T08:27:57.082Z,-1.30
2018-02-27T08:30:24.555Z,-1.30
2018-02-27T08:32:53.021Z,-1.20
2018-02-27T08:35:20.962Z,-1.20
2018-02-27T08:37:48.505Z,-1.10
2018-02-27T08:40:16.322Z,-1.10
2018-02-27T08:42:43.777Z,-1.00
2018-02-27T08:45:12.030Z,-1.00
2018-02-27T08:47:39.480Z,-1.00
2018-02-27T08:50:07.137Z,-1.00
2018-02-27T08:52:35.021Z,-0.90
2018-02-27T08:55:02.885Z,-0.80
2018-02-27T08:57:30.714Z,-0.80
2018-02-27T08:59:58.291Z,-0.70
2018-02-27T09:02:25.747Z,-0.70
2018-02-27T09:04:53.290Z,-0.60
2018-02-27T09:07:20.791Z,-0.40
2018-02-27T09:09:48.419Z,-0.30
2018-02-27T09:12:17.603Z,-0.20
2018-02-27T09:14:45.890Z,-0.10
2018-02-27T09:17:13.808Z,0.00
2018-02-27T09:19:42.123Z,0.20
2018-02-27T09:22:09.571Z,0.10
2018-02-27T09:24:37.028Z,0.20
2018-02-27T09:27:04.617Z,0.30
2018-02-27T09:29:33.056Z,0.40
2018-02-27T09:32:01.374Z,0.50
2018-02-27T09:34:31.455Z,0.60
2018-02-27T09:37:01.976Z,0.60
2018-02-27T09:39:30.918Z,0.80
2018-02-27T09:41:59.866Z,0.80
2018-02-27T09:44:28.101Z,0.90
2018-02-27T09:46:55.661Z,0.80
2018-02-27T09:49:25.079Z,0.90
2018-02-27T09:51:53.981Z,0.90
2018-02-27T09:54:22.208Z,0.90
2018-02-27T09:56:50.181Z,0.90
2018-02-27T09:59:19.292Z,0.80
2018-02-27T10:01:46.941Z,0.90
2018-02-27T10:04:16.453Z,1.00
2018-02-27T10:06:46.459Z,1.00
2018-02-27T10:09:21.192Z,1.10
2018-02-27T10:12:05.031Z,1.10
2018-02-27T10:14:32.949Z,1.10
2018-02-27T10:17:00.982Z,1.20
2018-02-27T10:19:28.443Z,1.20
2018-02-27T10:21:56.803Z,1.30
2018-02-27T10:24:24.330Z,1.30
2018-02-27T10:26:51.828Z,1.40
2018-02-27T10:29:19.385Z,1.50
2018-02-27T10:31:47.089Z,1.70
2018-02-27T10:34:15.144Z,1.90
2018-02-27T10:36:44.005Z,1.80
2018-02-27T10:39:12.857Z,2.10
2018-02-27T10:41:40.365Z,2.10
2018-02-27T10:44:08.583Z,2.20
2018-02-27T10:46:36.077Z,2.10
2018-02-27T10:49:03.570Z,2.20
2018-02-27T10:51:32.512Z,2.00
2018-02-27T10:54:00.069Z,2.00
2018-02-27T10:56:28.321Z,1.90
2018-02-27T10:58:55.808Z,1.80
2018-02-27T11:01:24.081Z,1.80
2018-02-27T11:03:51.761Z,1.70
2018-02-27T11:06:19.936Z,1.60
2018-02-27T11:08:48.188Z,1.50
2018-02-27T11:11:15.659Z,1.50
2018-02-27T11:13:44.173Z,1.50
2018-02-27T11:16:12.384Z,1.50
2018-02-27T11:18:40.195Z,1.50
2018-02-27T11:21:07.657Z,1.50
2018-02-27T11:23:35.991Z,1.70
2018-02-27T11:26:03.419Z,1.70
2018-02-27T11:28:31.005Z,1.80
2018-02-27T11:30:58.536Z,2.00
2018-02-27T11:33:25.977Z,2.10
2018-02-27T11:35:54.745Z,2.10
2018-02-27T11:38:23.838Z,2.10
2018-02-27T11:40:51.801Z,2.10
2018-02-27T11:43:19.253Z,2.10
2018-02-27T11:45:47.157Z,2.20
2018-02-27T11:48:15.418Z,2.30
2018-02-27T11:50:43.684Z,2.30
2018-02-27T11:53:11.937Z,2.40
2018-02-27T11:55:40.070Z,2.40
2018-02-27T11:58:07.617Z,2.40
2018-02-27T12:00:36.318Z,2.50
2018-02-27T12:03:03.812Z,2.50
2018-02-27T12:05:31.253Z,2.60
2018-02-27T12:07:58.750Z,2.80
2018-02-27T12:10:26.204Z,2.80
2018-02-27T12:12:55.140Z,2.80
2018-02-27T12:15:22.726Z,2.80
2018-02-27T12:17:50.501Z,2.80
2018-02-27T12:20:18.136Z,2.70
2018-02-27T12:22:45.608Z,2.60
2018-02-27T12:25:13.063Z,2.60
2018-02-27T12:27:40.549Z,2.60
2018-02-27T12:30:08.576Z,2.70
2018-02-27T12:32:36.789Z,2.70
2018-02-27T12:35:04.781Z,2.70
2018-02-27T12:37:32.281Z,2.70
2018-02-27T12:40:00.344Z,2.70
2018-02-27T12:42:27.817Z,2.60
2018-02-27T12:44:55.323Z,2.60
2018-02-27T12:47:23.568Z,2.40
2018-02-27T12:49:51.143Z,2.40
2018-02-27T12:52:19.117Z,2.40
2018-02-27T12:54:48.087Z,2.30
2018-02-27T12:57:15.549Z,2.40
2018-02-27T12:59:43.045Z,2.50
2018-02-27T13:02:10.529Z,2.60
2018-02-27T13:04:38.019Z,2.80
2018-02-27T13:07:05.533Z,3.00
2018-02-27T13:09:32.998Z,3.20
2018-02-27T13:12:01.082Z,3.40
2018-02-27T13:14:28.675Z,3.70
2018-02-27T13:16:56.141Z,4.00
2018-02-27T13:19:24.905Z,4.40
2018-02-27T13:21:52.780Z,4.40
2018-02-27T13:24:20.409Z,4.60
2018-02-27T13:26:47.893Z,4.80
2018-02-27T13:29:15.817Z,5.00
2018-02-27T13:31:43.314Z,5.20
2018-02-27T13:34:11.150Z,5.40
2018-02-27T13:36:39.797Z,5.60
2018-02-27T13:39:09.517Z,6.10
2018-02-27T13:41:37.783Z,6.30
2018-02-27T13:44:06.550Z,6.50
2018-02-27T13:46:34.995Z,6.50
2018-02-27T13:49:04.118Z,6.70
2018-02-27T13:51:32.284Z,7.10
2018-02-27T13:53:59.815Z,7.10
2018-02-27T13:56:28.015Z,7.10
2018-02-27T13:58:57.801Z,7.20
2018-02-27T14:01:25.265Z,7.40
2018-02-27T14:03:52.772Z,7.40
2018-02-27T14:06:20.992Z,6.80
2018-02-27T14:08:48.596Z,6.80
2018-02-27T14:11:16.281Z,6.40
2018-02-27T14:13:44.226Z,6.10
2018-02-27T14:16:11.755Z,5.70
2018-02-27T14:18:39.741Z,5.60
2018-02-27T14:21:07.636Z,5.60
2018-02-27T14:23:35.874Z,5.90
2018-02-27T14:26:03.349Z,5.90
2018-02-27T14:28:30.882Z,6.10
2018-02-27T14:30:58.368Z,6.30
2018-02-27T14:33:25.920Z,6.60
2018-02-27T14:35:53.955Z,6.70
2018-02-27T14:38:21.416Z,6.90
2018-02-27T14:40:49.297Z,7.10
2018-02-27T14:43:16.820Z,7.20
2018-02-27T14:45:44.532Z,7.20
2018-02-27T14:48:11.973Z,7.30
2018-02-27T14:50:40.117Z,7.30
2018-02-27T14:53:07.607Z,7.40
2018-02-27T14:55:35.652Z,7.30
2018-02-27T14:58:03.892Z,7.40
2018-02-27T15:00:32.782Z,7.40
2018-02-27T15:03:01.959Z,7.50
2018-02-27T15:05:30.825Z,7.60
2018-02-27T15:07:58.382Z,7.60
2018-02-27T15:10:25.886Z,7.70
2018-02-27T15:12:55.345Z,7.60
2018-02-27T15:15:23.294Z,7.60
2018-02-27T15:17:51.195Z,7.60
2018-02-27T15:20:18.656Z,7.60
2018-02-27T15:22:46.130Z,7.70
2018-02-27T15:25:14.471Z,7.50
2018-02-27T15:27:42.007Z,7.50
2018-02-27T15:30:10.667Z,7.20
2018-02-27T15:32:38.277Z,7.00
2018-02-27T15:35:06.206Z,6.70
2018-02-27T15:37:33.672Z,6.40
2018-02-27T15:40:01.831Z,6.20
2018-02-27T15:42:29.284Z,5.90
2018-02-27T15:44:57.005Z,5.60
2018-02-27T15:47:24.657Z,5.40
2018-02-27T15:49:53.680Z,5.20
2018-02-27T15:52:21.093Z,4.90
2018-02-27T15:54:49.055Z,4.70
2018-02-27T15:57:16.501Z,4.40
2018-02-27T15:59:44.393Z,4.30
2018-02-27T16:02:11.881Z,4.20
2018-02-27T16:04:40.141Z,4.00
2018-02-27T16:07:07.626Z,4.00
2018-02-27T16:09:35.100Z,4.00
2018-02-27T16:12:03.200Z,4.00
2018-02-27T16:14:30.739Z,3.90
2018-02-27T16:16:58.326Z,3.90
2018-02-27T16:19:26.167Z,3.90
2018-02-27T16:21:53.664Z,3.80
2018-02-27T16:24:22.014Z,3.80
2018-02-27T16:26:49.499Z,3.70
2018-02-27T16:29:17.158Z,3.70
2018-02-27T16:31:44.649Z,3.50
2018-02-27T16:34:12.698Z,3.40
2018-02-27T16:36:40.400Z,3.40
2018-02-27T16:39:08.617Z,3.30
2018-02-27T16:41:36.053Z,3.20
2018-02-27T16:44:03.743Z,3.20
2018-02-27T16:46:31.187Z,3.10
2018-02-27T16:48:59.899Z,3.10
2018-02-27T16:51:28.677Z,2.90
2018-02-27T16:53:56.121Z,2.90
2018-02-27T16:56:23.977Z,2.90
2018-02-27T16:58:51.461Z,2.80
2018-02-27T17:01:19.737Z,2.70
2018-02-27T17:03:47.998Z,2.70
2018-02-27T17:06:15.646Z,2.60
2018-02-27T17:08:43.190Z,2.60
2018-02-27T17:11:10.717Z,2.60
2018-02-27T17:13:38.642Z,2.50
2018-02-27T17:16:06.307Z,2.40
2018-02-27T17:18:35.204Z,2.30
2018-02-27T17:21:03.452Z,2.30
2018-02-27T17:23:31.024Z,2.30
2018-02-27T17:25:59.053Z,2.20
2018-02-27T17:28:26.608Z,2.20
2018-02-27T17:30:54.112Z,2.20
2018-02-27T17:33:22.454Z,2.20
2018-02-27T17:35:50.377Z,2.20
2018-02-27T17:38:18.593Z,2.10
2018-02-27T17:40:46.801Z,2.10
2018-02-27T17:43:14.289Z,2.10
2018-02-27T17:45:43.255Z,2.00
2018-02-27T17:48:12.295Z,1.90
2018-02-27T17:50:39.990Z,1.90
2018-02-27T17:53:07.521Z,1.90
2018-02-27T17:55:35.425Z,1.90
2018-02-27T17:58:02.881Z,1.90
2018-02-27T18:00:30.388Z,1.80
2018-02-27T18:02:58.002Z,1.80
2018-02-27T18:05:26.004Z,1.80
2018-02-27T18:07:54.213Z,1.70
2018-02-27T18:10:21.873Z,1.70
2018-02-27T18:12:50.022Z,1.60
2018-02-27T18:15:17.499Z,1.60
2018-02-27T18:17:45.655Z,1.50
2018-02-27T18:20:13.634Z,1.50
2018-02-27T18:22:41.133Z,1.50
2018-02-27T18:25:08.610Z,1.40
2018-02-27T18:27:36.512Z,1.40
2018-02-27T18:30:04.023Z,1.40
2018-02-27T18:32:31.514Z,1.30
2018-02-27T18:35:00.809Z,1.30
2018-02-27T18:37:29.059Z,1.20
2018-02-27T18:39:57.350Z,1.20
2018-02-27T18:42:26.035Z,1.10
2018-02-27T18:44:54.261Z,1.10
2018-02-27T18:47:21.749Z,1.10
2018-02-27T18:49:49.418Z,1.10
2018-02-27T18:52:16.901Z,1.10
2018-02-27T18:54:45.150Z,1.10
2018-02-27T18:57:12.607Z,1.10
2018-02-27T18:59:41.027Z,1.10
2018-02-27T19:02:09.274Z,1.10
2018-02-27T19:04:37.584Z,1.00
2018-02-27T19:07:05.422Z,1.00
2018-02-27T19:09:33.650Z,1.00
2018-02-27T19:12:01.224Z,1.00
2018-02-27T19:14:29.089Z,1.00
2018-02-27T19:16:58.605Z,1.00
2018-02-27T19:19:26.379Z,1.00
2018-02-27T19:21:54.634Z,1.00
2018-02-27T19:24:22.134Z,0.90
2018-02-27T19:26:50.326Z,0.90
2018-02-27T19:29:18.057Z,0.90
2018-02-27T19:31:46.834Z,0.90
2018-02-27T19:34:15.535Z,0.80
2018-02-27T19:36:44.211Z,0.80
2018-02-27T19:39:13.011Z,0.80
2018-02-27T19:41:40.474Z,0.80
2018-02-27T19:44:07.997Z,0.80
2018-02-27T19:46:36.246Z,0.80
2018-02-27T19:49:03.949Z,0.80
2018-02-27T19:51:32.191Z,0.80
2018-02-27T19:53:59.756Z,0.80
2018-02-27T19:56:28.703Z,0.80
2018-02-27T19:58:56.204Z,0.80
2018-02-27T20:01:23.709Z,0.70
2018-02-27T20:03:51.601Z,0.70
2018-02-27T20:06:19.169Z,0.70
2018-02-27T20:08:46.632Z,0.70
2018-02-27T20:11:14.263Z,0.70
2018-02-27T20:13:42.253Z,0.70
2018-02-27T20:16:09.727Z,0.60
2018-02-27T20:18:37.590Z,0.60
2018-02-27T20:21:05.768Z,0.50
2018-02-27T20:23:38.911Z,0.50
2018-02-27T20:26:06.866Z,0.50
2018-02-27T20:28:39.993Z,0.50
2018-02-27T20:31:07.489Z,0.50
2018-02-27T20:33:35.435Z,0.50
2018-02-27T20:36:03.337Z,0.50
2018-02-27T20:38:37.547Z,0.40
2018-02-27T20:41:06.225Z,0.30
2018-02-27T20:43:34.747Z,0.30
2018-02-27T20:46:02.236Z,0.30
2018-02-27T20:48:29.754Z,0.30
2018-02-27T20:50:57.873Z,0.30
2018-02-27T20:53:26.012Z,0.30
2018-02-27T20:55:54.007Z,0.40
2018-02-27T20:58:22.379Z,0.40
2018-02-27T21:00:49.894Z,0.40
2018-02-27T21:03:18.218Z,0.40
2018-02-27T21:05:46.217Z,0.40
2018-02-27T21:08:13.655Z,0.30
2018-02-27T21:10:41.145Z,0.40
2018-02-27T21:13:09.813Z,0.30
2018-02-27T21:15:37.632Z,0.30
2018-02-27T21:18:06.741Z,0.40
2018-02-27T21:20:34.797Z,0.40
2018-02-27T21:23:02.297Z,0.30
2018-02-27T21:25:30.615Z,0.30
2018-02-27T21:27:58.071Z,0.30
2018-02-27T21:30:25.567Z,0.30
2018-02-27T21:32:53.093Z,0.20
2018-02-27T21:35:21.266Z,0.20
2018-02-27T21:37:48.699Z,0.20
2018-02-27T21:40:16.572Z,0.20
2018-02-27T21:42:44.071Z,0.20
2018-02-27T21:45:12.387Z,0.20
2018-02-27T21:47:39.845Z,0.20
2018-02-27T21:50:08.054Z,0.10
2018-02-27T21:52:38.624Z,0.10
2018-02-27T21:55:06.592Z,0.10
2018-02-27T21:57:34.164Z,0.10
2018-02-27T22:00:01.784Z,0.00
2018-02-27T22:02:29.543Z,0.00
2018-02-27T22:04:57.017Z,0.00
2018-02-27T22:07:24.785Z,0.00
2018-02-27T22:09:52.232Z,0.00
2018-02-27T22:12:19.737Z,-0.10
2018-02-27T22:14:48.694Z,-0.10
2018-02-27T22:17:17.045Z,-0.20
2018-02-27T22:19:45.465Z,-0.20
2018-02-27T22:22:13.475Z,-0.20
2018-02-27T22:24:41.086Z,-0.20
2018-02-27T22:27:09.071Z,-0.20
2018-02-27T22:29:36.565Z,-0.20
2018-02-27T22:32:05.224Z,-0.30
2018-02-27T22:34:34.018Z,-0.30
2018-02-27T22:37:02.669Z,-0.40
2018-02-27T22:39:30.633Z,-0.40
2018-02-27T22:41:58.125Z,-0.30
2018-02-27T22:44:27.230Z,-0.40
2018-02-27T22:46:54.738Z,-0.40
2018-02-27T22:49:22.264Z,-0.40
2018-02-27T22:51:49.861Z,-0.40
2018-02-27T22:54:17.315Z,-0.40
2018-02-27T22:56:45.346Z,-0.40
2018-02-27T22:59:12.798Z,-0.40
2018-02-27T23:01:40.483Z,-0.40
2018-02-27T23:04:08.190Z,-0.40
2018-02-27T23:06:35.650Z,-0.40
2018-02-27T23:09:04.416Z,-0.30
2018-02-27T23:11:31.872Z,-0.40
2018-02-27T23:13:59.831Z,-0.30
2018-02-27T23:16:27.297Z,-0.30
2018-02-27T23:18:55.555Z,-0.30
2018-02-27T23:21:23.509Z,-0.30
2018-02-27T23:23:56.525Z,-0.30
2018-02-27T23:26:24.937Z,-0.30
2018-02-27T23:28:54.408Z,-0.20
2018-02-27T23:31:23.344Z,-0.20
2018-02-27T23:33:53.650Z,-0.30
2018-02-27T23:36:22.193Z,-0.30
2018-02-27T23:38:49.708Z,-0.30
2018-02-27T23:41:17.573Z,-0.30
2018-02-27T23:43:45.107Z,-0.30
2018-02-27T23:46:12.602Z,-0.30
2018-02-27T23:48:40.252Z,-0.40
2018-02-27T23:51:07.846Z,-0.40
2018-02-27T23:53:35.398Z,-0.40
2018-02-27T23:56:03.352Z,-0.40
2018-02-27T23:58:31.632Z,-0.40
